North Spring Valley, Nevada Weather observations

Data are for 10 minute period ending at time listed.
 Day   Time   Solar   Ave.   Ave.  Ave.  Vector  Max.   Baro.   Total    
  of    of     Rad.   Air    Rel.  Wind   Wind   Wind  Press.  Precip.   
Year   Day            Temp.  Hum.  Speed  Dir.   Gust                    
2015   (PST)  Kw/m2    F      %     mph   deg.    mph    mb.     in.     
-------------------------------------------------------------------------
 144   10:20   0.43   54.0    72    4.7   354     7.7   826.0    0.00 
 144   10:30   0.48   54.5    72    4.0   340     8.3   825.9    0.00 
 144   10:40   0.71   55.4    66    3.2     3     6.2   825.7    0.00 
 144   10:50   0.74   56.9    62    3.7    30     9.1   825.5    0.00 
 144   11:00   0.93   57.6    61    4.1   340     8.2   825.5    0.00 
 144   11:10   1.01   58.3    59    4.3    19    11.5   825.3    0.00 
 144   11:20   0.66   58.7    58    4.7     0    10.4   825.2    0.00 
 144   11:30   0.41   58.2    57    3.6    17     8.6   825.2    0.00 
 144   11:40   0.49   59.0    56    4.7   330     9.3   825.0    0.00 
 144   11:50   0.38   58.6    54    4.0   336     8.8   825.0    0.00 
 144   12:00   0.79   59.7    54    5.2   343     9.5   824.9    0.00 
 144   12:10   0.74   59.7    56    4.6   279     7.4   824.8    0.00 
 144   12:20   1.01   60.7    56    3.5   252     7.2   824.7    0.00 
 144   12:30   1.07   62.1    53    4.1   200    10.0   824.5    0.00 
 144   12:40   0.91   61.5    53    4.8   202     8.9   824.4    0.00 
 144   12:50   1.00   62.4    48    3.6   245    10.5   824.2    0.00 
 144   13:00   0.66   61.8    48    3.0   239     7.5   824.0    0.00 
 144   13:10   0.49   61.0    46    3.0   296     6.4   823.9    0.00 
 144   13:20   0.96   62.7    48    2.1    87     6.1   823.8    0.00 
 144   13:30   0.33   62.1    48    3.4    97     8.5   823.7    0.00 
 144   13:40   0.13   60.9    50    5.1     7    14.3   823.9    0.00 
 144   13:50   0.24   59.5    55   11.4    14    16.9   823.9    0.00 
 144   14:00   0.58   61.8    52    9.6    16    15.6   823.8    0.00 
 144   14:10   0.26   60.8    52    7.5   353    13.2   823.9    0.00 
 144   14:20   0.27   59.5    56    9.9     7    16.4   823.9    0.00 
 144   14:30   0.26   59.4    57    7.8   354    13.7   823.8    0.00 
 144   14:40   0.43   59.0    57   11.5     0    18.6   823.9    0.00 
 144   14:50   0.42   59.8    56   11.6     4    21.0   824.1    0.00 
 144   15:00   0.09   57.5    59   14.8    12    22.1   824.3    0.00 
 144   15:10   0.14   56.7    59   15.3    15    21.6   824.4    0.00 
 144   15:20   0.12   56.4    61   13.2   357    18.5   824.5    0.00 
 144   15:30   0.05   55.3    64   11.3   353    18.5   824.6    0.00 
 144   15:40   0.04   52.9    76    8.5   322    12.6   824.7    0.01 
 144   15:50   0.03   51.7    81    7.4   299    11.5   824.8    0.00 
 144   16:00   0.01   51.7    81    8.3   296    12.7   825.1    0.00 
 144   16:10   0.01   50.3    82   14.5   313    19.6   825.4    0.07 
 144   16:20   0.01   48.7    84   11.1   349    17.0   825.6    0.05 
 144   16:30   0.01   48.9    85   11.8   350    18.1   825.9    0.02 
 144   16:40   0.01   48.8    86    9.3   332    14.7   826.1    0.03 
 144   16:50   0.01   48.8    86    7.3   346    13.0   826.1    0.02 
 144   17:00   0.01   48.4    90    7.0     0    10.1   826.1    0.03 
 144   17:10   0.00   47.7    91    5.4   352     8.6   826.2    0.07 
 144   17:20   0.01   47.3    92    0.9    10     3.1   826.1    0.04 
 144   17:30   0.01   47.3    93    0.7   137     2.3   825.9    0.02 
 144   17:40   0.01   47.5    93    5.3   169     9.5   825.4    0.02 
 144   17:50   0.01   47.6    94    8.6   191    11.5   825.1    0.00 
 144   18:00   0.02   48.1    92    6.9   199    11.4   825.0    0.00 
 144   18:10   0.02   47.9    91    5.2   104     7.7   825.0    0.00 
 144   18:20   0.02   46.9    92    4.0    62     7.8   825.0    0.00 
 144   18:30   0.02   47.0    92    0.9   104     2.9   825.0    0.00 
 144   18:40   0.01   46.8    91    3.9   298     4.8   825.1    0.00 
 144   18:50   0.01   46.7    92    3.8   270     4.5   825.2    0.00 
 144   19:00   0.00   46.6    92    3.8   279     4.6   825.2    0.00 
 144   19:10   0.00   46.6    91    3.5   282     4.6   825.2    0.00 
 144   19:20   0.00   46.5    92    3.8   268     4.7   825.2    0.00 
 144   19:30   0.00   46.5    92    3.7   268     5.0   825.2    0.00 
 144   19:40   0.00   46.4    92    4.3   282     4.8   825.2    0.00 
 144   19:50   0.00   46.3    90    4.7   286     5.7   825.3    0.00 
 144   20:00   0.00   46.2    89    4.5   292     5.3   825.3    0.00 
 144   20:10   0.00   46.2    89    3.4   299     4.7   825.3    0.00 
 144   20:20   0.00   45.6    88    3.3   277     4.4   825.4    0.00 
 144   20:30   0.00   45.4    90    4.0   254     5.0   825.4    0.00 
 144   20:40   0.00   45.2    88    4.5   265     5.5   825.4    0.00 
 144   20:50   0.00   44.6    88    3.0   277     4.8   825.4    0.00 
 144   21:00   0.00   43.9    90    1.9    29     3.7   825.4    0.00 
 144   21:10   0.00   43.9    91    1.8   323     3.0   825.4    0.00 
 144   21:20   0.00   43.9    91    0.6   272     3.2   825.2    0.00 
 144   21:30   0.00   43.5    92    2.4   218     4.5   825.2    0.00 
 144   21:40   0.00   44.0    93    2.3   183     3.5   825.2    0.00 
 144   21:50   0.00   44.3    93    2.8   205     4.1   825.3    0.00 
 144   22:00   0.00   44.1    93    2.8   212     3.6   825.3    0.00 
 144   22:10   0.00   43.9    93    3.6   207     4.5   825.4    0.00 
 144   22:20   0.00   44.5    94    3.4   189     4.0   825.5    0.00 
 144   22:30   0.00   44.3    93    4.3   220     5.7   825.5    0.00 
 144   22:40   0.00   43.6    93    3.8   234     5.1   825.5    0.00 
 144   22:50   0.00   43.6    91    3.3   259     4.2   825.5    0.00 
 144   23:00   0.00   42.6    91    1.9   209     3.4   825.5    0.00 
 144   23:10   0.00   42.8    92    2.2   213     3.5   825.5    0.00 
 144   23:20   0.00   43.3    92    1.6   201     2.1   825.5    0.00 
 144   23:30   0.00   43.4    91    1.9   170     4.1   825.6    0.00 
 144   23:40   0.00   43.3    93    2.4   228     3.8   825.6    0.00 
 144   23:50   0.00   44.0    92    2.4   156     3.7   825.5    0.00 
 145    0:00   0.00   42.1    91    0.7   247     1.7   825.5    0.00 
 145    0:10   0.00   43.2    94    1.2   203     2.1   825.5    0.00 
 145    0:20   0.00   42.2    91    2.5   149     6.1   825.5    0.00 
 145    0:30   0.00   41.2    94    2.5   206     4.2   825.5    0.00 
 145    0:40   0.00   42.3    94    2.2   206     3.4   825.5    0.00 
 145    0:50   0.00   42.1    93    2.4   215     4.0   825.5    0.00 
 145    1:00   0.00   39.7    92    0.3    82     2.1   825.5    0.00 
 145    1:10   0.00   39.2    93    0.1    70     1.2   825.5    0.00 
 145    1:20   0.00   39.7    94    1.8   239     2.2   825.3    0.00 
 145    1:30   0.00   40.2    94    2.5   220     3.3   825.3    0.00 
 145    1:40   0.00   39.6    94    0.3   251     2.3   825.3    0.00 
 145    1:50   0.00   38.7    94    2.0   331     3.5   825.3    0.00 
 145    2:00   0.00   38.4    94    3.2   329     4.0   825.3    0.00 
 145    2:10   0.00   38.8    95    1.4   318     3.8   825.3    0.00 
 145    2:20   0.00   39.6    95    2.1   341     3.2   825.3    0.00 
 145    2:30   0.00   40.1    96    2.5   350     4.4   825.2    0.00 
 145    2:40   0.00   40.1    95    1.9   340     2.4   825.2    0.00 
 145    2:50   0.00   40.2    96    1.8   305     2.8   825.1    0.00 
 145    3:00   0.00   40.4    96    2.5   290     3.0   825.0    0.00 
 145    3:10   0.00   40.1    95    2.1   324     2.8   825.0    0.00 
 145    3:20   0.00   38.9    95    2.6   337     3.9   825.1    0.00 
 145    3:30   0.00   38.7    95    3.2   334     5.3   825.1    0.00 
 145    3:40   0.00   38.7    96    2.5   316     4.4   825.1    0.00 
 145    3:50   0.00   39.6    96    3.4   330     4.7   825.1    0.00 
 145    4:00   0.00   39.3    96    1.9   346     3.7   825.1    0.00 
 145    4:10   0.00   39.3    96    2.1   318     2.6   825.1    0.00 
 145    4:20   0.01   39.3    96    1.8   318     2.1   825.2    0.00 
 145    4:30   0.01   39.4    96    1.9   347     2.5   825.2    0.00 
 145    4:40   0.05   39.6    96    1.6   337     2.0   825.2    0.00 
 145    4:50   0.06   40.5    96    0.7   330     1.8   825.3    0.00 
 145    5:00   0.08   40.7    95    1.9    25     3.7   825.4    0.00 
 145    5:10   0.11   41.0    95    2.3    15     4.0   825.6    0.00 
 145    5:20   0.14   42.5    94    3.7    14     6.5   825.6    0.00 
 145    5:30   0.16   43.1    92    4.1     5     5.4   825.8    0.00 
 145    5:40   0.20   44.1    90    3.5   348     5.3   825.9    0.00 
 145    5:50   0.23   45.4    89    3.3   357     4.7   825.9    0.00 
 145    6:00   0.26   46.7    85    2.6    16     4.2   826.0    0.00 
 145    6:10   0.30   47.5    83    3.1   355     5.1   826.1    0.00 
 145    6:20   0.34   48.0    83    2.5    24     4.7   826.1    0.00 
 145    6:30   0.37   49.0    80    1.6    37     3.8   826.2    0.00 
 145    6:40   0.41   49.0    81    2.0    72     4.2   826.3    0.00 
 145    6:50   0.45   49.1    83    2.8    97     4.5   826.4    0.00 
 145    7:00   0.48   49.3    83    2.5   124     5.6   826.3    0.00 
 145    7:10   0.52   49.2    83    3.2   125     5.2   826.4    0.00 
 145    7:20   0.55   49.7    82    2.9   126     4.8   826.5    0.00 
 145    7:30   0.59   50.2    81    3.8   130     6.5   826.6    0.00 
 145    7:40   0.62   51.4    79    3.1   152     6.1   826.6    0.00 
 145    7:50   0.65   52.3    76    3.3   148     5.7   826.6    0.00 
 145    8:00   0.69   52.9    75    2.8   154     5.9   826.6    0.00 
 145    8:10   0.72   53.6    74    2.6   146     5.4   826.5    0.00 
 145    8:20   0.75   53.9    73    2.7   103     5.8   826.5    0.00 
 145    8:30   0.79   54.9    73    3.5   143     8.8   826.5    0.00 
 145    8:40   0.85   55.0    71    3.6   139     7.2   826.5    0.00 
 145    8:50   0.98   55.7    72    4.5   137     9.2   826.5    0.00 
 145    9:00   0.86   56.8    71    3.4   150     8.9   826.6    0.00 
 145    9:10   0.32   56.2    72    3.8   149     6.4   826.5    0.00 
 145    9:20   0.80   57.0    70    3.2   154     5.8   826.5    0.00 
 145    9:30   0.99   59.0    65    4.1   140     8.0   826.4    0.00 
 145    9:40   0.81   60.0    59    3.6   148     7.3   826.5    0.00 
 145    9:50   0.49   59.3    53    3.9   150     6.5   826.5    0.00 
 145   10:00   0.48   60.2    46    2.4   135     4.8   826.5    0.00 
 145   10:10   0.79   61.1    49    3.3   137     7.4   826.4    0.00 

Return to North Spring Valley graphs page.


Western Regional Climate Center,wrcc@dri.edu